Time;durP1;ratioP1;P1;durP2;ratioP2;P2;SDS_P1;SDS_P2;PMS_P1;PMS_P2;Temp;Humidity;BMP_temperature;BMP_pressure;BME280_temperature;BME280_humidity;BME280_pressure;Samples;Min_cycle;Max_cycle;Signal;HPM_P1;HPM_P2
2022/11/24 00:02:28;;;;;;;2.58;0.70;;;;;;;;;;5128411;27;20051;-71
2022/11/24 00:04:58;;;;;;;8.57;1.27;;;;;;;;;;5129037;27;20054;-72
2022/11/24 00:07:28;;;;;;;2.28;0.80;;;;;;;;;;5128655;27;20047;-72
2022/11/24 00:09:58;;;;;;;3.33;0.90;;;;;;;;;;5128090;27;20611;-72
2022/11/24 00:12:28;;;;;;;5.25;0.90;;;;;;;;;;5128655;27;20054;-73
2022/11/24 00:14:58;;;;;;;2.17;0.90;;;;;;;;;;5128162;27;20051;-72
2022/11/24 00:17:28;;;;;;;6.60;1.63;;;;;;;;;;5127798;27;20070;-72
2022/11/24 00:19:57;;;;;;;7.63;1.50;;;;;;;;;;5128529;27;20066;-71
2022/11/24 00:22:27;;;;;;;1.83;0.80;;;;;;;;;;5127615;27;20058;-72
2022/11/24 00:24:57;;;;;;;2.53;1.00;;;;;;;;;;5127944;27;20043;-71
2022/11/24 00:27:27;;;;;;;6.32;1.02;;;;;;;;;;5128000;27;20043;-71
2022/11/24 00:29:58;;;;;;;8.90;1.55;;;;;;;;;;5127967;27;20039;-71
2022/11/24 00:32:29;;;;;;;6.68;0.90;;;;;;;;;;5127123;27;20042;-71
2022/11/24 00:34:59;;;;;;;2.80;1.23;;;;;;;;;;5127233;27;20051;-72
2022/11/24 00:37:29;;;;;;;6.63;1.02;;;;;;;;;;5127459;27;20043;-72
2022/11/24 00:39:59;;;;;;;2.10;1.10;;;;;;;;;;5127365;27;20113;-72
2022/11/24 00:42:29;;;;;;;3.10;1.10;;;;;;;;;;5126218;27;20051;-71
2022/11/24 00:44:58;;;;;;;4.72;0.98;;;;;;;;;;5127348;27;20421;-71
2022/11/24 00:47:41;;;;;;;5.03;1.00;;;;;;;;;;5125530;27;20588;-71
2022/11/24 00:50:11;;;;;;;2.53;0.93;;;;;;;;;;5127693;27;20493;-71
2022/11/24 00:52:41;;;;;;;1.58;0.90;;;;;;;;;;5125640;27;20077;-71
2022/11/24 00:55:10;;;;;;;1.63;0.93;;;;;;;;;;5127740;27;20039;-72
2022/11/24 00:57:40;;;;;;;1.95;0.93;;;;;;;;;;5127413;27;20039;-72
2022/11/24 01:00:10;;;;;;;8.63;1.05;;;;;;;;;;5126866;27;20413;-71
2022/11/24 01:02:40;;;;;;;4.15;1.30;;;;;;;;;;5127378;27;20489;-71
2022/11/24 01:05:10;;;;;;;4.15;0.82;;;;;;;;;;5125363;27;20072;-72
2022/11/24 01:07:40;;;;;;;2.72;1.02;;;;;;;;;;5127710;27;20038;-71
2022/11/24 01:10:11;;;;;;;1.85;0.95;;;;;;;;;;5125959;27;20039;-72
2022/11/24 01:12:41;;;;;;;3.83;1.17;;;;;;;;;;5126873;27;20055;-71
2022/11/24 01:15:11;;;;;;;3.15;1.10;;;;;;;;;;5125941;27;20517;-72
2022/11/24 01:17:41;;;;;;;4.20;1.15;;;;;;;;;;5126141;27;20794;-72
2022/11/24 01:20:12;;;;;;;4.45;1.02;;;;;;;;;;5126991;27;20089;-71
2022/11/24 01:22:42;;;;;;;3.78;0.98;;;;;;;;;;5126418;27;20055;-75
2022/11/24 01:25:11;;;;;;;4.07;1.23;;;;;;;;;;5127402;28;20051;-71
2022/11/24 01:27:41;;;;;;;4.40;0.98;;;;;;;;;;5127096;28;20634;-71
2022/11/24 01:30:11;;;;;;;3.40;1.20;;;;;;;;;;5126695;28;20513;-72
2022/11/24 01:32:41;;;;;;;4.40;1.10;;;;;;;;;;5125940;27;20051;-71
2022/11/24 01:35:10;;;;;;;4.13;1.25;;;;;;;;;;5127209;28;20043;-72
2022/11/24 01:37:41;;;;;;;3.03;1.10;;;;;;;;;;5125285;27;20498;-71
2022/11/24 01:40:11;;;;;;;5.35;1.10;;;;;;;;;;5126764;28;20043;-71
2022/11/24 01:42:52;;;;;;;5.30;1.10;;;;;;;;;;5128517;27;20592;-71
2022/11/24 01:45:35;;;;;;;2.38;0.90;;;;;;;;;;5131117;27;20054;-71
2022/11/24 01:48:09;;;;;;;3.33;1.05;;;;;;;;;;5131926;27;20518;-72
2022/11/24 01:50:40;;;;;;;3.30;1.00;;;;;;;;;;5131202;27;20050;-72
2022/11/24 01:53:13;;;;;;;5.57;1.02;;;;;;;;;;5131172;27;20051;-72
2022/11/24 01:55:43;;;;;;;1.40;0.90;;;;;;;;;;5130700;27;20039;-71
2022/11/24 01:58:17;;;;;;;6.55;1.20;;;;;;;;;;5131255;27;20074;-71
2022/11/24 02:00:47;;;;;;;2.55;1.15;;;;;;;;;;5130526;27;20047;-72
2022/11/24 02:03:25;;;;;;;5.70;0.93;;;;;;;;;;5130447;27;20050;-72
2022/11/24 02:06:19;;;;;;;5.60;1.30;;;;;;;;;;5130727;27;20127;-72
2022/11/24 02:09:12;;;;;;;2.28;1.05;;;;;;;;;;5130963;27;20489;-71
2022/11/24 02:11:44;;;;;;;5.20;1.10;;;;;;;;;;5130863;27;20039;-72
2022/11/24 02:14:17;;;;;;;4.22;1.23;;;;;;;;;;5130499;27;20058;-71
2022/11/24 02:16:52;;;;;;;3.92;1.00;;;;;;;;;;5130442;27;20047;-71
2022/11/24 02:19:39;;;;;;;4.72;1.00;;;;;;;;;;5130255;27;20063;-71
2022/11/24 02:22:28;;;;;;;1.67;1.00;;;;;;;;;;5130355;27;20058;-71
2022/11/24 02:25:07;;;;;;;3.75;1.10;;;;;;;;;;5130379;27;20058;-71
2022/11/24 02:27:38;;;;;;;3.70;0.80;;;;;;;;;;5130530;27;20058;-71
2022/11/24 02:30:08;;;;;;;2.80;1.00;;;;;;;;;;5129456;27;20422;-71
2022/11/24 02:32:41;;;;;;;5.03;1.00;;;;;;;;;;5127550;27;20051;-71
2022/11/24 02:35:13;;;;;;;3.58;1.20;;;;;;;;;;5130724;27;20031;-71
2022/11/24 02:37:43;;;;;;;4.43;1.00;;;;;;;;;;5130228;27;20059;-71
2022/11/24 02:40:23;;;;;;;2.75;1.02;;;;;;;;;;5129991;27;20050;-71
2022/11/24 02:42:59;;;;;;;3.75;1.30;;;;;;;;;;5128634;27;20062;-71
2022/11/24 02:45:30;;;;;;;8.57;1.20;;;;;;;;;;5130289;27;20505;-71
2022/11/24 02:48:00;;;;;;;5.32;1.13;;;;;;;;;;5128828;27;20082;-72
2022/11/24 02:50:31;;;;;;;6.20;1.48;;;;;;;;;;5130188;27;20055;-71
2022/11/24 02:53:01;;;;;;;3.70;0.90;;;;;;;;;;5129521;27;20047;-71
2022/11/24 02:55:30;;;;;;;6.05;1.63;;;;;;;;;;5128705;27;20043;-71
2022/11/24 02:58:00;;;;;;;1.35;0.80;;;;;;;;;;5130276;27;20047;-71
2022/11/24 03:00:30;;;;;;;6.72;1.10;;;;;;;;;;5129388;27;20047;-71
2022/11/24 03:03:00;;;;;;;8.95;1.52;;;;;;;;;;5128514;27;20043;-72
2022/11/24 03:05:30;;;;;;;3.17;1.08;;;;;;;;;;5129482;27;20043;-72
2022/11/24 03:07:59;;;;;;;2.20;1.25;;;;;;;;;;5129136;27;20058;-71
2022/11/24 03:10:29;;;;;;;2.63;0.98;;;;;;;;;;5129837;27;20521;-71
2022/11/24 03:12:59;;;;;;;1.65;0.90;;;;;;;;;;5128853;27;20051;-71
2022/11/24 03:15:29;;;;;;;7.68;1.30;;;;;;;;;;5129089;27;20043;-71
2022/11/24 03:17:59;;;;;;;4.03;1.13;;;;;;;;;;5129693;27;20547;-71
2022/11/24 03:20:29;;;;;;;4.80;1.10;;;;;;;;;;5129597;27;20063;-71
2022/11/24 03:22:59;;;;;;;2.97;1.00;;;;;;;;;;5129891;27;20398;-71
2022/11/24 03:25:29;;;;;;;3.70;1.08;;;;;;;;;;5129733;27;20406;-71
2022/11/24 03:27:59;;;;;;;4.43;1.48;;;;;;;;;;5129079;27;20055;-72
2022/11/24 03:30:29;;;;;;;2.90;1.23;;;;;;;;;;5129307;27;20043;-71
2022/11/24 03:32:59;;;;;;;3.95;1.10;;;;;;;;;;5128794;27;20066;-71
2022/11/24 03:35:29;;;;;;;4.93;1.38;;;;;;;;;;5128576;27;20540;-71
2022/11/24 03:37:58;;;;;;;5.05;1.13;;;;;;;;;;5128734;27;20059;-71
2022/11/24 03:40:28;;;;;;;3.03;1.63;;;;;;;;;;5129215;27;20047;-71
2022/11/24 03:42:58;;;;;;;2.38;1.02;;;;;;;;;;5128961;27;20410;-72
2022/11/24 03:45:28;;;;;;;4.05;1.10;;;;;;;;;;5128183;27;20044;-72
2022/11/24 03:48:15;;;;;;;2.70;1.27;;;;;;;;;;5129122;27;20055;-72
2022/11/24 03:50:56;;;;;;;2.63;0.90;;;;;;;;;;5128088;27;20638;-71
2022/11/24 03:53:29;;;;;;;4.13;1.10;;;;;;;;;;5127426;27;20051;-71
2022/11/24 03:56:00;;;;;;;4.13;1.27;;;;;;;;;;5128350;27;20521;-72
2022/11/24 03:58:30;;;;;;;5.18;1.30;;;;;;;;;;5128685;27;20497;-71
2022/11/24 04:01:00;;;;;;;2.80;1.23;;;;;;;;;;5126711;27;20063;-71
2022/11/24 04:03:31;;;;;;;4.00;1.10;;;;;;;;;;5128365;27;20051;-71
2022/11/24 04:06:01;;;;;;;2.90;1.02;;;;;;;;;;5128612;27;20047;-72
2022/11/24 04:08:31;;;;;;;6.80;1.33;;;;;;;;;;5128501;27;20039;-72
2022/11/24 04:11:01;;;;;;;2.15;1.17;;;;;;;;;;5126643;27;21063;-71
2022/11/24 04:13:31;;;;;;;6.22;1.20;;;;;;;;;;5128852;27;20076;-71
2022/11/24 04:16:05;;;;;;;3.90;1.10;;;;;;;;;;5128293;27;20405;-72
2022/11/24 04:18:35;;;;;;;2.83;1.15;;;;;;;;;;5128171;27;20043;-71
2022/11/24 04:21:05;;;;;;;5.97;1.17;;;;;;;;;;5127045;27;20062;-71
2022/11/24 04:23:34;;;;;;;3.83;1.40;;;;;;;;;;5128143;27;20051;-71
2022/11/24 04:26:04;;;;;;;5.47;1.40;;;;;;;;;;5126868;27;20074;-71
2022/11/24 04:28:34;;;;;;;4.72;1.10;;;;;;;;;;5127732;27;20046;-71
2022/11/24 04:31:05;;;;;;;4.93;1.15;;;;;;;;;;5128148;27;20051;-71
2022/11/24 04:33:35;;;;;;;6.40;1.42;;;;;;;;;;5126932;27;20043;-71
2022/11/24 04:36:05;;;;;;;2.65;1.08;;;;;;;;;;5128375;27;20051;-71
2022/11/24 04:38:35;;;;;;;4.30;1.30;;;;;;;;;;5125856;27;20082;-71
2022/11/24 04:41:25;;;;;;;4.97;1.23;;;;;;;;;;5127573;27;20039;-71
2022/11/24 04:43:55;;;;;;;4.15;1.30;;;;;;;;;;5126289;27;20050;-71
2022/11/24 04:46:24;;;;;;;2.38;1.08;;;;;;;;;;5127704;27;20425;-71
2022/11/24 04:48:55;;;;;;;4.07;1.40;;;;;;;;;;5127812;27;20414;-71
2022/11/24 04:51:25;;;;;;;2.47;1.20;;;;;;;;;;5127281;27;20039;-71
2022/11/24 04:53:55;;;;;;;3.72;1.05;;;;;;;;;;5127276;27;20043;-71
2022/11/24 04:56:24;;;;;;;5.15;1.60;;;;;;;;;;5127179;27;20051;-71
2022/11/24 04:58:54;;;;;;;6.95;1.40;;;;;;;;;;5128150;27;20498;-71
2022/11/24 05:01:24;;;;;;;7.97;1.50;;;;;;;;;;5127569;27;20417;-71
2022/11/24 05:03:54;;;;;;;2.78;1.58;;;;;;;;;;5127594;27;20050;-71
2022/11/24 05:06:25;;;;;;;1.58;1.05;;;;;;;;;;5127263;27;20120;-71
2022/11/24 05:08:55;;;;;;;1.58;1.20;;;;;;;;;;5126694;27;20058;-71
2022/11/24 05:11:24;;;;;;;1.80;1.30;;;;;;;;;;5127360;27;20054;-71
2022/11/24 05:13:54;;;;;;;2.53;1.10;;;;;;;;;;5126861;27;20039;-71
2022/11/24 05:16:24;;;;;;;3.08;1.05;;;;;;;;;;5127482;27;20055;-71
2022/11/24 05:18:54;;;;;;;2.75;1.40;;;;;;;;;;5126953;27;20066;-71
2022/11/24 05:21:24;;;;;;;2.85;1.40;;;;;;;;;;5127096;27;20050;-71
2022/11/24 05:23:54;;;;;;;2.45;1.25;;;;;;;;;;5127398;28;20058;-71
2022/11/24 05:26:25;;;;;;;6.55;1.38;;;;;;;;;;5127310;28;20047;-71
2022/11/24 05:28:55;;;;;;;2.03;1.50;;;;;;;;;;5125433;28;20601;-71
2022/11/24 05:31:24;;;;;;;4.65;1.30;;;;;;;;;;5127499;28;20504;-71
2022/11/24 05:33:54;;;;;;;4.07;1.30;;;;;;;;;;5127274;28;20039;-71
2022/11/24 05:39:13;;;;;;;4.47;1.30;;;;;;;;;;5127392;28;20039;-71
2022/11/24 05:41:42;;;;;;;6.05;1.30;;;;;;;;;;5127070;28;20051;-71
2022/11/24 05:44:12;;;;;;;10.00;1.30;;;;;;;;;;5126788;28;20043;-71
2022/11/24 05:46:42;;;;;;;7.07;1.60;;;;;;;;;;5127190;28;20050;-71
2022/11/24 05:49:12;;;;;;;5.57;1.50;;;;;;;;;;5127109;28;20055;-72
2022/11/24 05:51:42;;;;;;;3.17;1.10;;;;;;;;;;5124267;28;20494;-71
2022/11/24 05:54:11;;;;;;;3.10;1.20;;;;;;;;;;5126963;28;20043;-72
2022/11/24 05:56:41;;;;;;;5.57;1.30;;;;;;;;;;5126435;28;20050;-71
2022/11/24 05:59:11;;;;;;;2.45;1.13;;;;;;;;;;5127263;28;20050;-72
2022/11/24 06:01:41;;;;;;;2.60;1.23;;;;;;;;;;5126441;28;20059;-71
2022/11/24 06:04:11;;;;;;;2.95;1.17;;;;;;;;;;5124133;28;20512;-72
2022/11/24 06:06:40;;;;;;;4.60;1.20;;;;;;;;;;5124898;28;20051;-72
2022/11/24 06:09:10;;;;;;;5.20;1.50;;;;;;;;;;5124628;28;20062;-71
2022/11/24 06:11:40;;;;;;;2.22;1.02;;;;;;;;;;5127127;28;20050;-71
2022/11/24 06:14:10;;;;;;;4.85;1.30;;;;;;;;;;5126869;28;20039;-71
2022/11/24 06:16:39;;;;;;;5.30;1.52;;;;;;;;;;5126920;28;20043;-71
2022/11/24 06:19:10;;;;;;;3.50;1.38;;;;;;;;;;5126497;28;20059;-71
2022/11/24 06:21:40;;;;;;;4.85;1.40;;;;;;;;;;5126758;28;20050;-71
2022/11/24 06:24:10;;;;;;;2.03;1.25;;;;;;;;;;5126806;28;20535;-71
2022/11/24 06:26:40;;;;;;;2.58;1.23;;;;;;;;;;5126219;28;20043;-72
2022/11/24 06:29:10;;;;;;;3.63;1.50;;;;;;;;;;5127550;27;20610;-71
2022/11/24 06:31:40;;;;;;;2.78;1.25;;;;;;;;;;5130060;27;20047;-72
2022/11/24 06:34:11;;;;;;;2.03;1.08;;;;;;;;;;5130790;27;20039;-72
2022/11/24 06:36:41;;;;;;;2.80;1.15;;;;;;;;;;5130284;27;20047;-72
2022/11/24 06:39:11;;;;;;;2.47;1.25;;;;;;;;;;5130035;27;20058;-72
2022/11/24 06:41:41;;;;;;;8.35;1.35;;;;;;;;;;5129932;27;20054;-71
2022/11/24 06:44:11;;;;;;;1.15;1.05;;;;;;;;;;5130084;27;20051;-72
2022/11/24 06:46:40;;;;;;;3.55;1.17;;;;;;;;;;5129699;27;20051;-72
2022/11/24 06:49:11;;;;;;;2.10;1.27;;;;;;;;;;5130040;27;20047;-71
2022/11/24 06:51:41;;;;;;;7.15;1.40;;;;;;;;;;5130007;27;20614;-71
2022/11/24 06:54:14;;;;;;;2.80;1.38;;;;;;;;;;5130089;27;20481;-72
2022/11/24 06:56:45;;;;;;;2.60;1.23;;;;;;;;;;5129738;27;20588;-72
2022/11/24 06:59:19;;;;;;;3.53;1.50;;;;;;;;;;5130114;27;20054;-71
2022/11/24 07:01:49;;;;;;;5.47;1.38;;;;;;;;;;5130130;27;20054;-71
2022/11/24 07:04:19;;;;;;;2.60;1.13;;;;;;;;;;5129629;27;20039;-71
2022/11/24 07:06:49;;;;;;;1.77;1.20;;;;;;;;;;5129436;27;20047;-72
2022/11/24 07:09:18;;;;;;;1.63;1.02;;;;;;;;;;5129386;27;20039;-71
2022/11/24 07:11:48;;;;;;;5.60;1.23;;;;;;;;;;5129215;27;20054;-71
2022/11/24 07:14:18;;;;;;;2.67;1.27;;;;;;;;;;5129616;27;20047;-72
2022/11/24 07:16:49;;;;;;;2.67;1.40;;;;;;;;;;5128264;27;20418;-71
2022/11/24 07:19:19;;;;;;;3.65;1.33;;;;;;;;;;5129636;27;20070;-72
2022/11/24 07:21:53;;;;;;;4.50;1.42;;;;;;;;;;5129873;27;20039;-71
2022/11/24 07:24:22;;;;;;;1.50;1.20;;;;;;;;;;5128911;27;20050;-72
2022/11/24 07:26:53;;;;;;;6.07;1.40;;;;;;;;;;5129257;27;20054;-71
2022/11/24 07:29:23;;;;;;;5.50;1.52;;;;;;;;;;5129203;27;20039;-72
2022/11/24 07:31:53;;;;;;;6.47;1.63;;;;;;;;;;5128751;27;20050;-71
2022/11/24 07:34:27;;;;;;;2.90;1.10;;;;;;;;;;5129250;27;20047;-71
2022/11/24 07:36:56;;;;;;;;;;;;;;;;;;5129966;27;20500;-71
2022/11/24 07:39:26;;;;;;;4.13;1.30;;;;;;;;;;5129559;27;19930;-71
2022/11/24 07:41:57;;;;;;;3.90;1.20;;;;;;;;;;5128650;27;20043;-71
2022/11/24 07:44:27;;;;;;;2.50;1.40;;;;;;;;;;5129462;27;20062;-71
2022/11/24 07:46:57;;;;;;;4.15;1.60;;;;;;;;;;5129941;27;20070;-71
2022/11/24 07:49:26;;;;;;;;;;;;;;;;;;5128812;27;20039;-71
2022/11/24 07:51:56;;;;;;;4.55;1.50;;;;;;;;;;5129065;27;19919;-71
2022/11/24 07:54:26;;;;;;;3.40;1.50;;;;;;;;;;5127067;27;20047;-71
2022/11/24 07:56:56;;;;;;;2.58;1.60;;;;;;;;;;5128883;27;20413;-71
2022/11/24 07:59:25;;;;;;;5.57;1.40;;;;;;;;;;5128437;27;20051;-71
2022/11/24 08:01:55;;;;;;;7.63;1.50;;;;;;;;;;5128249;27;20420;-71
2022/11/24 08:04:25;;;;;;;5.10;2.25;;;;;;;;;;5128102;27;20043;-71
2022/11/24 08:06:55;;;;;;;6.50;1.40;;;;;;;;;;5128589;27;20493;-71
2022/11/24 08:09:24;;;;;;;7.63;1.67;;;;;;;;;;5127275;27;20043;-71
2022/11/24 08:11:54;;;;;;;4.75;1.60;;;;;;;;;;5128263;27;20047;-71
2022/11/24 08:14:24;;;;;;;4.65;1.60;;;;;;;;;;5127867;27;20421;-71
2022/11/24 08:16:54;;;;;;;;;;;;;;;;;;5129118;27;20960;-71
2022/11/24 08:19:23;;;;;;;2.88;1.30;;;;;;;;;;5127991;27;20416;-71
2022/11/24 08:21:54;;;;;;;5.00;1.50;;;;;;;;;;5127950;27;20050;-71
2022/11/24 08:24:26;;;;;;;5.10;1.45;;;;;;;;;;5128014;27;20051;-72
2022/11/24 08:26:57;;;;;;;3.28;1.45;;;;;;;;;;5127781;27;20070;-71
2022/11/24 08:29:30;;;;;;;3.40;1.35;;;;;;;;;;5128195;27;20054;-71
2022/11/24 08:32:00;;;;;;;2.53;1.60;;;;;;;;;;5128123;27;20039;-72
2022/11/24 08:34:30;;;;;;;2.92;1.55;;;;;;;;;;5127878;27;20039;-71
2022/11/24 08:37:02;;;;;;;5.03;1.88;;;;;;;;;;5125515;27;20051;-72
2022/11/24 08:39:33;;;;;;;6.53;2.00;;;;;;;;;;5127541;27;20043;-71
2022/11/24 08:42:03;;;;;;;3.80;1.80;;;;;;;;;;5125269;27;20058;-71
2022/11/24 08:44:33;;;;;;;3.55;1.63;;;;;;;;;;5125007;27;20051;-71
2022/11/24 08:47:03;;;;;;;3.83;1.95;;;;;;;;;;5125576;27;20055;-71
2022/11/24 08:49:33;;;;;;;4.38;1.58;;;;;;;;;;5127290;27;20058;-71
2022/11/24 08:52:03;;;;;;;2.40;1.58;;;;;;;;;;5126457;27;20035;-71
2022/11/24 08:54:33;;;;;;;5.00;1.67;;;;;;;;;;5125891;27;20051;-71
2022/11/24 08:57:03;;;;;;;4.60;1.67;;;;;;;;;;5128139;27;20031;-71
2022/11/24 08:59:33;;;;;;;4.97;1.60;;;;;;;;;;5127602;27;20062;-71
2022/11/24 09:02:03;;;;;;;4.15;1.40;;;;;;;;;;5106058;28;20096;-72
2022/11/24 09:04:32;;;;;;;1.88;1.38;;;;;;;;;;5104614;28;20047;-71
2022/11/24 09:07:03;;;;;;;3.85;1.63;;;;;;;;;;5104302;28;20494;-72
2022/11/24 09:09:32;;;;;;;4.60;1.80;;;;;;;;;;5106287;28;20525;-71
2022/11/24 09:12:02;;;;;;;3.88;1.75;;;;;;;;;;5106567;28;20054;-71
2022/11/24 09:14:36;;;;;;;4.25;1.73;;;;;;;;;;5106787;28;20525;-71
2022/11/24 09:17:06;;;;;;;6.20;1.80;;;;;;;;;;5106656;28;20494;-72
2022/11/24 09:19:36;;;;;;;6.18;1.98;;;;;;;;;;5106321;28;20060;-72
2022/11/24 09:22:06;;;;;;;5.93;2.80;;;;;;;;;;5105437;28;20047;-72
2022/11/24 09:24:38;;;;;;;7.20;3.03;;;;;;;;;;5107250;28;20058;-71
2022/11/24 09:27:08;;;;;;;6.03;2.60;;;;;;;;;;5106554;28;20044;-71
2022/11/24 09:29:39;;;;;;;7.40;3.80;;;;;;;;;;5106635;28;20521;-71
2022/11/24 09:32:09;;;;;;;5.10;2.30;;;;;;;;;;5105424;28;20047;-72
2022/11/24 09:34:38;;;;;;;4.03;2.15;;;;;;;;;;5106498;28;20494;-72
2022/11/24 09:37:08;;;;;;;3.28;1.77;;;;;;;;;;5106382;28;20047;-72
2022/11/24 09:39:38;;;;;;;5.55;2.08;;;;;;;;;;5106430;28;20066;-72
2022/11/24 09:42:13;;;;;;;4.43;2.15;;;;;;;;;;5106833;28;20070;-71
2022/11/24 09:44:49;;;;;;;6.63;1.60;;;;;;;;;;5106895;28;20056;-72
2022/11/24 09:47:37;;;;;;;;;;;;;;;;;;5105820;28;20047;-71
2022/11/24 09:50:17;;;;;;;4.20;2.00;;;;;;;;;;5106336;28;19934;-72
2022/11/24 09:53:02;;;;;;;4.30;1.40;;;;;;;;;;5106499;28;20051;-71
2022/11/24 09:55:55;;;;;;;5.72;1.83;;;;;;;;;;5106505;28;20501;-71
2022/11/24 09:58:36;;;;;;;4.80;2.10;;;;;;;;;;5106132;28;20048;-75
2022/11/24 10:01:19;;;;;;;2.47;1.73;;;;;;;;;;5106699;28;20043;-71
2022/11/24 10:03:51;;;;;;;2.30;1.73;;;;;;;;;;5107911;28;20075;-71
2022/11/24 10:06:23;;;;;;;4.30;1.80;;;;;;;;;;5110861;28;20036;-71
2022/11/24 10:09:09;;;;;;;5.72;2.00;;;;;;;;;;5110171;28;20497;-73
2022/11/24 10:11:41;;;;;;;10.60;2.45;;;;;;;;;;5110187;28;20055;-72
2022/11/24 10:14:35;;;;;;;4.20;2.13;;;;;;;;;;5108086;28;20066;-72
2022/11/24 10:17:11;;;;;;;3.28;1.83;;;;;;;;;;5110048;28;20044;-72
2022/11/24 10:20:27;;;;;;;9.32;2.53;;;;;;;;;;5109615;28;20525;-72
2022/11/24 10:23:18;;;;;;;7.82;2.75;;;;;;;;;;5094345;28;20514;-76
2022/11/24 10:25:58;;;;;;;4.57;1.73;;;;;;;;;;5109635;28;20051;-72
2022/11/24 10:28:43;;;;;;;6.28;1.80;;;;;;;;;;5110216;28;20051;-72
2022/11/24 10:31:19;;;;;;;4.85;1.90;;;;;;;;;;5109532;28;20548;-72
2022/11/24 10:33:50;;;;;;;5.78;1.50;;;;;;;;;;5109478;28;20070;-73
2022/11/24 10:36:32;;;;;;;4.25;1.52;;;;;;;;;;5109399;28;20172;-72
2022/11/24 10:39:11;;;;;;;6.68;1.70;;;;;;;;;;5109406;28;20533;-75
2022/11/24 10:41:46;;;;;;;3.83;1.63;;;;;;;;;;5111371;28;20051;-73
2022/11/24 10:44:16;;;;;;;6.32;2.75;;;;;;;;;;5107718;28;20088;-77
2022/11/24 10:46:46;;;;;;;9.07;6.82;;;;;;;;;;5109352;28;20074;-72
2022/11/24 10:49:24;;;;;;;8.10;1.85;;;;;;;;;;5109178;28;20394;-72
2022/11/24 10:52:06;;;;;;;4.03;1.70;;;;;;;;;;5108140;28;20044;-73
2022/11/24 10:54:59;;;;;;;13.48;2.30;;;;;;;;;;5107633;28;20043;-73
2022/11/24 10:57:35;;;;;;;5.25;1.80;;;;;;;;;;5109516;28;20406;-73
2022/11/24 11:00:18;;;;;;;6.65;1.60;;;;;;;;;;5109118;28;20047;-72
2022/11/24 11:02:49;;;;;;;3.65;1.50;;;;;;;;;;5109082;28;20055;-74
2022/11/24 11:05:32;;;;;;;4.57;1.52;;;;;;;;;;5108897;28;20051;-76
2022/11/24 11:08:14;;;;;;;8.55;1.88;;;;;;;;;;5108979;28;20047;-72
2022/11/24 11:10:45;;;;;;;4.80;1.70;;;;;;;;;;5108741;28;20510;-72
2022/11/24 11:13:24;;;;;;;7.30;1.70;;;;;;;;;;5108760;28;20516;-72
2022/11/24 11:15:55;;;;;;;2.72;1.48;;;;;;;;;;5108809;28;20048;-73
2022/11/24 11:18:31;;;;;;;4.70;1.70;;;;;;;;;;5109222;28;20035;-73
2022/11/24 11:21:02;;;;;;;4.38;1.80;;;;;;;;;;5109117;28;20052;-73
2022/11/24 11:23:35;;;;;;;10.73;1.85;;;;;;;;;;5109118;28;20502;-72
2022/11/24 11:26:24;;;;;;;2.83;1.50;;;;;;;;;;5108209;28;20601;-73
2022/11/24 11:29:09;;;;;;;3.50;1.25;;;;;;;;;;5107545;28;20051;-73
2022/11/24 11:32:03;;;;;;;4.25;1.50;;;;;;;;;;5108572;28;20054;-73
2022/11/24 11:34:56;;;;;;;8.60;1.88;;;;;;;;;;5108578;28;20047;-72
2022/11/24 11:37:32;;;;;;;4.65;1.35;;;;;;;;;;5106718;28;20055;-72
2022/11/24 11:40:02;;;;;;;3.05;1.27;;;;;;;;;;5107217;28;20043;-72
2022/11/24 11:42:32;;;;;;;5.13;2.03;;;;;;;;;;5108898;28;20040;-72
2022/11/24 11:45:28;;;;;;;3.47;1.70;;;;;;;;;;5108002;28;20039;-72
2022/11/24 11:48:02;;;;;;;2.60;1.30;;;;;;;;;;5108350;28;20043;-79
2022/11/24 11:50:49;;;;;;;2.08;1.45;;;;;;;;;;5105778;28;20055;-72
2022/11/24 11:53:45;;;;;;;;;;;;;;;;;;5109031;28;20058;-72
2022/11/24 11:56:24;;;;;;;5.00;1.60;;;;;;;;;;5106511;28;19931;-72
2022/11/24 11:59:10;;;;;;;4.82;1.40;;;;;;;;;;5108016;28;20136;-73
2022/11/24 12:02:09;;;;;;;6.20;1.48;;;;;;;;;;5107906;28;20044;-72
2022/11/24 12:04:52;;;;;;;5.13;1.63;;;;;;;;;;5108670;28;20125;-74
2022/11/24 12:07:53;;;;;;;2.95;1.50;;;;;;;;;;5107569;28;20038;-75
2022/11/24 12:10:45;;;;;;;4.88;1.42;;;;;;;;;;5107937;28;20058;-79
2022/11/24 12:13:21;;;;;;;2.70;1.55;;;;;;;;;;5107591;28;20032;-73
2022/11/24 12:15:55;;;;;;;4.13;1.63;;;;;;;;;;5107618;28;20047;-72
2022/11/24 12:18:43;;;;;;;3.47;1.50;;;;;;;;;;5106350;28;20691;-72
2022/11/24 12:21:51;;;;;;;2.97;1.52;;;;;;;;;;5107402;28;20059;-73
2022/11/24 12:24:33;;;;;;;3.95;1.50;;;;;;;;;;5108360;28;20674;-73
2022/11/24 12:27:24;;;;;;;4.78;1.70;;;;;;;;;;5106679;28;20047;-72
2022/11/24 12:30:10;;;;;;;4.30;1.40;;;;;;;;;;5106941;28;20094;-74
2022/11/24 12:33:10;;;;;;;3.85;1.40;;;;;;;;;;5106875;28;20414;-73
2022/11/24 12:35:53;;;;;;;4.63;1.50;;;;;;;;;;5107177;28;20050;-73
2022/11/24 12:39:05;;;;;;;4.13;1.30;;;;;;;;;;5107351;28;20442;-74
2022/11/24 12:41:44;;;;;;;11.73;3.17;;;;;;;;;;5100561;28;20063;-74
2022/11/24 12:44:35;;;;;;;3.13;1.20;;;;;;;;;;5107018;28;20048;-74
2022/11/24 12:47:10;;;;;;;2.63;0.88;;;;;;;;;;5107496;28;20429;-74
2022/11/24 12:50:02;;;;;;;3.08;0.90;;;;;;;;;;5107448;28;20052;-77
2022/11/24 12:52:38;;;;;;;1.75;1.10;;;;;;;;;;5107375;28;20043;-73
2022/11/24 12:55:17;;;;;;;2.15;1.00;;;;;;;;;;5106723;28;20619;-73
2022/11/24 12:58:07;;;;;;;1.38;0.80;;;;;;;;;;5106858;28;20044;-77
2022/11/24 13:01:01;;;;;;;3.85;1.13;;;;;;;;;;5076844;28;20055;-73
2022/11/24 13:03:49;;;;;;;2.00;0.80;;;;;;;;;;5106733;28;20039;-73
2022/11/24 13:06:56;;;;;;;1.33;1.23;;;;;;;;;;5105624;28;20533;-73
2022/11/24 13:09:26;;;;;;;2.40;0.90;;;;;;;;;;5099738;28;20062;-74
2022/11/24 13:12:12;;;;;;;1.23;0.90;;;;;;;;;;5106851;28;20036;-72
2022/11/24 13:14:45;;;;;;;1.67;1.20;;;;;;;;;;5107106;28;20047;-75
2022/11/24 13:17:32;;;;;;;1.98;1.00;;;;;;;;;;5106703;28;20551;-74
2022/11/24 13:20:39;;;;;;;1.58;1.00;;;;;;;;;;5106350;28;20066;-74
2022/11/24 13:23:24;;;;;;;3.83;1.08;;;;;;;;;;5107032;28;20043;-73
2022/11/24 13:26:13;;;;;;;3.47;1.00;;;;;;;;;;5106480;28;20043;-74
2022/11/24 13:29:04;;;;;;;1.55;0.80;;;;;;;;;;5106698;28;20133;-73
2022/11/24 13:31:52;;;;;;;2.95;0.90;;;;;;;;;;5107305;28;20043;-73
2022/11/24 13:34:44;;;;;;;4.72;2.45;;;;;;;;;;5106444;28;20055;-73
2022/11/24 13:37:27;;;;;;;2.45;1.10;;;;;;;;;;5092681;28;20752;-73
2022/11/24 13:40:29;;;;;;;1.33;0.80;;;;;;;;;;5110978;28;20052;-73
2022/11/24 13:43:01;;;;;;;2.17;0.93;;;;;;;;;;5108566;28;20052;-74
2022/11/24 13:45:41;;;;;;;1.40;0.95;;;;;;;;;;5110498;28;20051;-73
2022/11/24 13:48:20;;;;;;;3.40;0.75;;;;;;;;;;5110706;28;20517;-73
2022/11/24 13:50:53;;;;;;;0.93;0.70;;;;;;;;;;5110884;28;20051;-74
2022/11/24 13:53:46;;;;;;;3.08;0.95;;;;;;;;;;5110332;28;20541;-73
2022/11/24 13:56:16;;;;;;;3.83;0.90;;;;;;;;;;5110413;28;20409;-73
2022/11/24 13:59:00;;;;;;;1.95;1.00;;;;;;;;;;5110373;28;20039;-73
2022/11/24 14:01:32;;;;;;;2.53;1.60;;;;;;;;;;5110408;28;20501;-74
2022/11/24 14:04:25;;;;;;;1.35;0.80;;;;;;;;;;5110943;28;20413;-73
2022/11/24 14:07:06;;;;;;;1.27;0.70;;;;;;;;;;5110395;28;20051;-73
2022/11/24 14:09:51;;;;;;;5.75;0.93;;;;;;;;;;5110264;28;20826;-73
2022/11/24 14:12:24;;;;;;;0.88;0.68;;;;;;;;;;5110116;28;20450;-73
2022/11/24 14:15:23;;;;;;;1.88;0.80;;;;;;;;;;5109184;28;20044;-72
2022/11/24 14:17:53;;;;;;;2.15;0.60;;;;;;;;;;5109873;28;20048;-73
2022/11/24 14:20:25;;;;;;;4.35;0.85;;;;;;;;;;5109671;28;20058;-73
2022/11/24 14:22:55;;;;;;;2.97;0.85;;;;;;;;;;5109736;28;20040;-73
2022/11/24 14:25:30;;;;;;;2.00;0.52;;;;;;;;;;5109330;28;20054;-73
2022/11/24 14:28:01;;;;;;;1.73;0.65;;;;;;;;;;5109834;28;20410;-73
2022/11/24 14:30:30;;;;;;;2.80;0.73;;;;;;;;;;5110068;28;20046;-75
2022/11/24 14:33:02;;;;;;;4.30;1.27;;;;;;;;;;5108841;28;20510;-74
2022/11/24 14:35:41;;;;;;;0.60;0.55;;;;;;;;;;5109386;28;20047;-73
2022/11/24 14:38:12;;;;;;;2.40;0.63;;;;;;;;;;5109735;28;20054;-73
2022/11/24 14:40:52;;;;;;;1.73;0.77;;;;;;;;;;5109852;28;20398;-73
2022/11/24 14:43:33;;;;;;;3.22;0.80;;;;;;;;;;5109433;28;20043;-73
2022/11/24 14:46:04;;;;;;;;;;;;;;;;;;5109584;28;20051;-73
2022/11/24 14:48:52;;;;;;;2.33;0.47;;;;;;;;;;5108483;28;20897;-73
2022/11/24 14:51:26;;;;;;;1.75;0.70;;;;;;;;;;5108547;28;20055;-73
2022/11/24 14:54:05;;;;;;;2.35;0.63;;;;;;;;;;5109851;28;20043;-73
2022/11/24 14:56:38;;;;;;;2.35;0.60;;;;;;;;;;5109442;28;20410;-73
2022/11/24 14:59:23;;;;;;;1.48;0.68;;;;;;;;;;5109326;28;20046;-73
2022/11/24 15:01:55;;;;;;;2.53;0.80;;;;;;;;;;5109068;28;20058;-73
2022/11/24 15:04:27;;;;;;;1.77;0.80;;;;;;;;;;5108810;28;20050;-73
2022/11/24 15:07:28;;;;;;;2.35;1.05;;;;;;;;;;5109297;28;20047;-76
2022/11/24 15:10:00;;;;;;;2.47;0.85;;;;;;;;;;5109373;28;20075;-73
2022/11/24 15:12:33;;;;;;;1.23;0.80;;;;;;;;;;5108618;28;20043;-73
2022/11/24 15:15:14;;;;;;;0.47;0.47;;;;;;;;;;5109149;28;20044;-73
2022/11/24 15:17:48;;;;;;;1.65;0.50;;;;;;;;;;5108893;28;20062;-79
2022/11/24 15:20:43;;;;;;;0.90;0.57;;;;;;;;;;5109498;28;20051;-73
2022/11/24 15:23:29;;;;;;;1.98;0.70;;;;;;;;;;5108735;28;20039;-74
2022/11/24 15:26:02;;;;;;;1.13;0.60;;;;;;;;;;5108490;28;20056;-73
2022/11/24 15:28:32;;;;;;;1.45;0.68;;;;;;;;;;5108504;28;20525;-73
2022/11/24 15:31:05;;;;;;;4.25;0.70;;;;;;;;;;5108315;28;20515;-73
2022/11/24 15:33:35;;;;;;;1.17;0.50;;;;;;;;;;5108512;28;20058;-77
2022/11/24 15:36:07;;;;;;;6.03;0.90;;;;;;;;;;5108267;28;20062;-73